Balcarce, Argentina
Current Conditions -  °F | °C
As of 3:00 PM on Friday 24 Oct 2014 (Local Time) from SAZM Reporting Station
Scattered Clouds Scattered Clouds  
Wind Chill: 66°   Ceiling: Unl
Heat Index: 66°   Visibility: 6mi
Dew Point: 59°   Wind: 12mph
Humidity: 78%   Direction: 70°ENE
Pressure: 30.03"   Gusts: NA
Location:  37.85°S, 58.26°W
Report Text: SAZM 241800Z 07010KT 9999 FEW020 SCT20019/15 Q1017
Loading
Personal Weather Stations






























Interactive Weather Map
Tropical Storm Tracking
New forecast layout! Learn more

10-Day Weather Forecast

Advertisements
Track Severe Weather on mobile